Time;durP1;ratioP1;P1;durP2;ratioP2;P2;SDS_P1;SDS_P2;PMS_P1;PMS_P2;Temp;Humidity;BMP_temperature;BMP_pressure;BME280_temperature;BME280_humidity;BME280_pressure;Samples;Min_cycle;Max_cycle;Signal;HPM_P1;HPM_P2
2022/08/18 00:01:58;;;;;;;7.97;4.97;;;13.00;99.90;;;;;;4976009;28;20040;-69
2022/08/18 00:04:25;;;;;;;8.55;5.40;;;13.00;99.90;;;;;;4975386;28;20072;-68
2022/08/18 00:06:53;;;;;;;12.57;5.38;;;13.10;99.90;;;;;;4980643;28;20058;-68
2022/08/18 00:09:20;;;;;;;6.78;4.95;;;13.10;99.90;;;;;;4974558;28;20042;-71
2022/08/18 00:11:47;;;;;;;10.65;5.10;;;13.20;99.90;;;;;;4975684;28;20057;-70
2022/08/18 00:14:17;;;;;;;9.70;4.55;;;13.20;99.90;;;;;;4975172;28;20041;-71
2022/08/18 00:16:45;;;;;;;11.38;4.72;;;13.20;99.90;;;;;;4977396;28;20073;-71
2022/08/18 00:19:12;;;;;;;7.93;4.50;;;13.30;99.90;;;;;;4980441;28;20023;-69
2022/08/18 00:21:40;;;;;;;7.15;4.95;;;13.30;99.90;;;;;;4975170;28;20022;-69
2022/08/18 00:24:07;;;;;;;7.85;4.53;;;13.40;99.90;;;;;;4974989;28;20015;-72
2022/08/18 00:26:34;;;;;;;10.10;5.88;;;13.60;99.90;;;;;;4973368;28;20030;-71
2022/08/18 00:29:02;;;;;;;7.13;3.90;;;13.60;99.90;;;;;;4976208;28;20022;-71
2022/08/18 00:31:30;;;;;;;11.85;4.22;;;13.80;99.90;;;;;;4982667;28;20026;-71
2022/08/18 00:33:57;;;;;;;9.93;5.03;;;13.80;99.90;;;;;;4975739;28;20034;-70
2022/08/18 00:36:26;;;;;;;11.40;5.03;;;14.00;99.90;;;;;;4974446;28;20522;-69
2022/08/18 00:38:54;;;;;;;7.68;4.35;;;14.00;99.90;;;;;;4976317;28;20117;-70
2022/08/18 00:41:25;;;;;;;8.52;4.68;;;14.00;99.90;;;;;;4974207;28;20719;-69
2022/08/18 00:43:53;;;;;;;12.77;4.60;;;14.10;99.90;;;;;;4976809;28;20022;-71
2022/08/18 00:46:28;;;;;;;9.65;4.40;;;14.20;99.90;;;;;;4976097;28;20101;-70
2022/08/18 00:48:56;;;;;;;10.07;4.20;;;14.30;99.90;;;;;;4975885;28;20116;-71
2022/08/18 00:51:37;;;;;;;9.25;4.55;;;14.30;99.90;;;;;;4974622;28;20468;-69
2022/08/18 00:54:14;;;;;;;8.23;4.00;;;14.30;99.90;;;;;;4982491;28;20037;-69
2022/08/18 00:56:47;;;;;;;7.80;4.03;;;14.40;99.90;;;;;;4979461;28;20066;-69
2022/08/18 00:59:30;;;;;;;9.80;4.65;;;14.40;99.90;;;;;;4978708;28;20042;-70
2022/08/18 01:02:01;;;;;;;9.65;3.75;;;14.50;99.90;;;;;;4977650;28;20022;-71
2022/08/18 01:04:39;;;;;;;11.98;4.22;;;14.50;99.90;;;;;;4979726;28;20038;-69
2022/08/18 01:07:13;;;;;;;8.02;4.72;;;14.60;99.70;;;;;;4995593;28;20360;-71
2022/08/18 01:09:41;;;;;;;7.07;3.75;;;14.70;99.90;;;;;;4988547;28;20026;-71
2022/08/18 01:12:09;;;;;;;9.32;4.75;;;14.90;99.50;;;;;;4977364;28;20033;-71
2022/08/18 01:14:37;;;;;;;9.73;3.65;;;15.10;99.20;;;;;;4978530;28;20080;-72
2022/08/18 01:22:58;;;;;;;9.02;3.15;;;16.00;97.70;;;;;;5000148;28;20847;-70
2022/08/18 01:28:11;;;;;;;5.68;3.13;;;16.50;95.50;;;;;;4978773;28;20097;-70
2022/08/18 01:30:56;;;;;;;7.72;3.58;;;16.60;95.10;;;;;;4990565;28;20540;-70
2022/08/18 01:33:31;;;;;;;5.55;2.95;;;16.60;95.10;;;;;;4998868;28;20414;-69
2022/08/18 01:36:17;;;;;;;10.75;3.05;;;16.70;94.60;;;;;;4982318;28;20031;-69
2022/08/18 01:38:49;;;;;;;7.07;2.70;;;16.60;94.50;;;;;;4960551;28;20109;-71
2022/08/18 01:41:18;;;;;;;6.28;3.00;;;16.50;94.50;;;;;;4959813;28;20864;-70
2022/08/18 01:43:45;;;;;;;5.95;2.55;;;16.70;94.50;;;;;;4981845;28;20391;-70
2022/08/18 01:46:13;;;;;;;5.72;2.70;;;16.90;94.30;;;;;;4978442;28;20031;-71
2022/08/18 01:48:41;;;;;;;6.25;2.65;;;17.10;93.50;;;;;;4981239;28;20215;-69
2022/08/18 01:51:11;;;;;;;6.03;3.33;;;17.20;93.30;;;;;;4976952;28;20038;-70
2022/08/18 01:53:39;;;;;;;7.38;2.85;;;17.40;93.40;;;;;;4979349;28;20121;-70
2022/08/18 01:56:08;;;;;;;7.78;2.70;;;17.60;92.80;;;;;;4957266;28;20123;-72
2022/08/18 01:58:36;;;;;;;6.07;2.05;;;17.90;92.30;;;;;;4975710;28;20038;-71
2022/08/18 02:01:04;;;;;;;4.03;1.85;;;18.10;90.60;;;;;;4976706;28;20069;-70
2022/08/18 02:03:37;;;;;;;4.00;2.45;;;18.20;90.20;;;;;;4979073;28;20026;-71
2022/08/18 02:06:10;;;;;;;6.63;3.13;;;18.40;90.20;;;;;;4974488;28;20050;-72
2022/08/18 02:08:38;;;;;;;6.00;1.77;;;18.50;90.60;;;;;;4974632;28;20034;-72
2022/08/18 02:11:07;;;;;;;4.65;2.20;;;18.50;90.80;;;;;;4976529;28;20473;-71
2022/08/18 02:13:35;;;;;;;6.20;2.47;;;18.60;88.70;;;;;;4977490;28;20096;-69
2022/08/18 02:16:03;;;;;;;2.97;1.70;;;18.70;87.70;;;;;;4974934;28;20033;-71
2022/08/18 02:18:34;;;;;;;4.13;1.90;;;18.90;88.70;;;;;;4982611;28;20033;-70
2022/08/18 02:21:13;;;;;;;4.50;1.85;;;19.10;87.50;;;;;;4983952;28;20026;-70
2022/08/18 02:23:43;;;;;;;4.30;1.80;;;19.30;88.10;;;;;;4977477;28;20534;-71
2022/08/18 02:26:14;;;;;;;3.70;1.92;;;19.50;85.40;;;;;;4975089;28;20424;-71
2022/08/18 02:28:42;;;;;;;4.72;2.67;;;19.40;85.90;;;;;;4977607;28;20026;-70
2022/08/18 02:31:13;;;;;;;5.07;2.10;;;19.50;84.90;;;;;;4980629;28;20030;-71
2022/08/18 02:33:41;;;;;;;4.35;1.50;;;19.60;84.30;;;;;;4976146;28;20058;-71
2022/08/18 02:36:10;;;;;;;9.63;1.83;;;19.80;84.10;;;;;;4976216;28;20080;-72
2022/08/18 02:38:39;;;;;;;2.97;1.38;;;20.10;83.80;;;;;;4978056;28;20022;-71
2022/08/18 02:41:09;;;;;;;5.13;1.90;;;20.10;79.30;;;;;;4977567;28;20030;-67
2022/08/18 02:43:38;;;;;;;4.65;1.73;;;20.40;80.10;;;;;;4982806;28;20030;-70
2022/08/18 02:46:06;;;;;;;1.60;0.90;;;20.80;80.70;;;;;;4983166;28;20032;-70
2022/08/18 02:48:34;;;;;;;4.03;1.40;;;21.30;78.00;;;;;;4977805;28;20025;-70
2022/08/18 02:51:11;;;;;;;2.92;1.00;;;21.90;77.10;;;;;;4958367;28;20380;-68
2022/08/18 02:53:40;;;;;;;4.80;1.00;;;22.50;75.30;;;;;;4974646;28;20042;-70
2022/08/18 02:56:23;;;;;;;2.40;0.80;;;23.10;72.90;;;;;;4985129;28;20017;-68
2022/08/18 02:58:54;;;;;;;2.67;0.90;;;23.70;71.50;;;;;;4976349;28;20038;-69
2022/08/18 03:01:24;;;;;;;2.53;0.80;;;23.80;66.00;;;;;;4974402;28;20029;-69
2022/08/18 03:03:53;;;;;;;2.45;0.75;;;24.00;64.00;;;;;;4976921;28;20029;-68
2022/08/18 03:06:22;;;;;;;1.50;0.90;;;24.10;61.70;;;;;;4974725;28;20030;-70
2022/08/18 03:08:50;;;;;;;1.42;0.60;;;24.50;59.30;;;;;;4983926;28;20026;-71
2022/08/18 03:11:24;;;;;;;1.02;0.45;;;24.90;59.90;;;;;;4975444;28;20445;-72
2022/08/18 03:13:52;;;;;;;1.75;0.60;;;25.50;59.70;;;;;;4976567;28;20030;-67
2022/08/18 03:16:20;;;;;;;1.48;0.40;;;25.90;56.40;;;;;;4974430;28;20023;-68
2022/08/18 03:18:48;;;;;;;0.60;0.50;;;26.10;55.50;;;;;;4974924;28;20029;-70
2022/08/18 03:21:20;;;;;;;0.65;0.40;;;26.10;54.50;;;;;;4988394;28;20024;-70
2022/08/18 03:23:47;;;;;;;;;;;26.20;56.30;;;;;;4976455;28;20509;-70
2022/08/18 03:26:16;;;;;;;2.80;0.60;;;26.60;56.10;;;;;;4975926;28;19905;-70
2022/08/18 03:28:46;;;;;;;2.30;0.55;;;26.80;54.00;;;;;;4973508;28;20088;-70
2022/08/18 03:31:15;;;;;;;2.88;0.45;;;26.50;53.20;;;;;;4977839;28;20609;-69
2022/08/18 03:33:44;;;;;;;0.50;0.40;;;25.90;53.30;;;;;;4972949;28;20121;-69
2022/08/18 03:36:15;;;;;;;1.02;0.82;;;25.50;54.60;;;;;;4975680;28;20106;-70
2022/08/18 03:38:44;;;;;;;2.03;0.45;;;25.50;54.90;;;;;;4973598;28;20026;-69
2022/08/18 03:41:14;;;;;;;1.27;0.50;;;25.40;54.10;;;;;;4976279;28;20703;-69
2022/08/18 03:43:42;;;;;;;1.13;0.40;;;25.50;55.80;;;;;;4980088;28;20034;-68
2022/08/18 03:46:12;;;;;;;1.85;0.60;;;25.90;55.00;;;;;;4988629;28;20459;-69
2022/08/18 03:48:41;;;;;;;0.95;0.40;;;26.20;54.00;;;;;;4974745;28;20707;-71
2022/08/18 03:51:16;;;;;;;1.00;0.47;;;25.90;54.40;;;;;;4977055;28;20050;-69
2022/08/18 03:53:44;;;;;;;1.30;0.50;;;25.70;54.30;;;;;;4973643;28;20081;-72
2022/08/18 03:56:17;;;;;;;0.65;0.40;;;25.30;55.10;;;;;;4977166;28;20034;-76
2022/08/18 03:58:51;;;;;;;1.15;0.50;;;24.80;55.70;;;;;;4973612;28;20050;-74
2022/08/18 04:01:23;;;;;;;1.25;0.50;;;24.10;56.50;;;;;;4976114;28;20030;-70
2022/08/18 04:03:55;;;;;;;0.75;0.40;;;23.60;58.20;;;;;;4974842;28;20480;-73
2022/08/18 04:06:31;;;;;;;1.05;0.60;;;23.20;57.90;;;;;;4976340;28;20026;-75
2022/08/18 04:09:03;;;;;;;1.40;0.50;;;23.10;58.40;;;;;;4985565;28;20113;-72
2022/08/18 04:11:36;;;;;;;3.65;0.50;;;23.00;58.10;;;;;;4975740;28;20045;-73
2022/08/18 04:14:04;;;;;;;1.25;0.63;;;22.60;58.90;;;;;;4974971;28;20201;-75
2022/08/18 04:16:33;;;;;;;1.10;0.60;;;22.50;59.90;;;;;;4976137;28;20022;-74
2022/08/18 04:19:03;;;;;;;1.38;0.50;;;22.90;59.70;;;;;;4974469;28;20072;-77
2022/08/18 04:21:35;;;;;;;1.67;0.55;;;23.70;58.50;;;;;;4987593;28;20090;-73
2022/08/18 04:24:04;;;;;;;1.42;0.60;;;24.80;58.20;;;;;;4972900;28;20027;-70
2022/08/18 04:26:46;;;;;;;1.27;0.60;;;25.70;56.40;;;;;;4975387;28;20031;-74
2022/08/18 04:29:15;;;;;;;;;;;26.50;55.40;;;;;;4975232;28;20026;-70
2022/08/18 04:31:42;;;;;;;1.85;0.60;;;27.20;54.40;;;;;;4973435;28;19910;-71
2022/08/18 04:34:11;;;;;;;1.08;0.70;;;28.00;53.60;;;;;;4974728;28;20048;-70
2022/08/18 04:36:39;;;;;;;1.17;0.60;;;28.20;52.40;;;;;;4975983;28;20089;-73
2022/08/18 04:39:08;;;;;;;2.10;0.70;;;28.20;52.50;;;;;;4974978;28;20100;-73
2022/08/18 04:41:37;;;;;;;1.98;0.60;;;27.80;52.40;;;;;;4975768;28;20096;-71
2022/08/18 04:44:07;;;;;;;2.30;0.60;;;27.20;52.90;;;;;;4975874;28;20570;-69
2022/08/18 04:46:41;;;;;;;2.65;0.85;;;26.20;53.70;;;;;;4990317;28;20030;-71
2022/08/18 04:49:09;;;;;;;0.95;0.47;;;25.40;55.10;;;;;;4973306;28;20030;-69
2022/08/18 04:51:39;;;;;;;1.90;0.70;;;24.50;55.60;;;;;;4976385;28;20077;-70
2022/08/18 04:54:07;;;;;;;1.02;0.70;;;24.00;57.10;;;;;;4972956;28;20034;-70
2022/08/18 04:56:38;;;;;;;1.17;0.50;;;24.00;57.40;;;;;;4983500;28;20455;-70
2022/08/18 04:59:08;;;;;;;3.72;0.80;;;24.20;57.50;;;;;;4992674;28;20064;-70
2022/08/18 05:01:46;;;;;;;2.50;0.68;;;24.70;56.80;;;;;;4996664;28;20475;-69
2022/08/18 05:04:15;;;;;;;2.17;1.17;;;25.10;56.40;;;;;;4994436;28;20018;-71
2022/08/18 05:06:44;;;;;;;4.00;0.60;;;25.50;56.00;;;;;;4995382;28;20018;-70
2022/08/18 05:09:14;;;;;;;1.38;0.40;;;25.50;56.00;;;;;;4991925;28;20697;-71
2022/08/18 05:11:43;;;;;;;1.40;0.50;;;25.70;56.80;;;;;;4994915;28;20022;-69
2022/08/18 05:14:11;;;;;;;1.38;0.68;;;26.10;56.40;;;;;;4991166;28;20037;-69
2022/08/18 05:16:39;;;;;;;3.03;0.52;;;26.40;56.00;;;;;;4974871;28;20097;-70
2022/08/18 05:19:10;;;;;;;2.75;0.52;;;26.40;55.80;;;;;;4972253;28;20507;-74
2022/08/18 05:21:40;;;;;;;4.63;1.20;;;26.10;55.40;;;;;;4988740;28;20026;-73
2022/08/18 05:24:09;;;;;;;2.03;0.50;;;26.10;56.20;;;;;;4980948;28;20038;-72
2022/08/18 05:26:36;;;;;;;1.67;0.52;;;26.40;55.80;;;;;;4976289;28;20034;-71
2022/08/18 05:29:04;;;;;;;4.63;0.45;;;26.70;56.50;;;;;;4973060;28;20026;-70
2022/08/18 05:31:31;;;;;;;1.55;0.40;;;27.00;55.20;;;;;;4976423;28;20026;-70
2022/08/18 05:34:02;;;;;;;1.35;0.40;;;27.30;55.20;;;;;;4973306;28;20034;-72
2022/08/18 05:36:48;;;;;;;1.00;0.32;;;27.70;55.90;;;;;;4975547;28;20030;-69
2022/08/18 05:39:21;;;;;;;1.73;0.40;;;28.30;54.30;;;;;;4970960;28;20030;-73
2022/08/18 05:42:02;;;;;;;0.73;0.40;;;28.60;54.40;;;;;;4976276;28;20030;-72
2022/08/18 05:44:32;;;;;;;1.27;0.40;;;29.00;54.00;;;;;;4975983;28;20333;-69
2022/08/18 05:47:27;;;;;;;3.40;0.50;;;29.00;54.30;;;;;;4976100;28;20026;-70
2022/08/18 05:49:57;;;;;;;0.80;0.40;;;28.70;54.40;;;;;;4978184;28;20089;-71
2022/08/18 05:52:46;;;;;;;3.03;0.50;;;28.50;54.90;;;;;;4978361;28;20034;-68
2022/08/18 05:58:27;;;;;;;;;;;29.20;54.50;;;;;;4983162;28;20153;-72
2022/08/18 06:00:59;;;;;;;1.67;0.40;;;29.50;53.40;;;;;;4977177;28;19909;-71
2022/08/18 06:03:58;;;;;;;2.00;0.50;;;29.30;54.10;;;;;;4976144;28;20030;-71
2022/08/18 06:06:30;;;;;;;0.75;0.40;;;28.50;53.20;;;;;;5005608;28;20046;-69
2022/08/18 06:09:31;;;;;;;2.55;0.75;;;27.50;54.70;;;;;;4981376;28;20076;-72
2022/08/18 06:12:27;;;;;;;0.55;0.30;;;26.80;56.40;;;;;;4983000;28;20042;-71
2022/08/18 06:15:09;;;;;;;2.42;0.50;;;26.00;56.80;;;;;;4978365;28;20077;-73
2022/08/18 06:18:09;;;;;;;4.05;0.60;;;25.20;58.40;;;;;;4974143;28;20018;-70
2022/08/18 06:21:03;;;;;;;2.80;0.70;;;24.50;58.60;;;;;;4975085;28;20134;-71
2022/08/18 06:23:56;;;;;;;0.85;0.50;;;23.80;59.90;;;;;;4975938;28;20030;-71
2022/08/18 06:26:48;;;;;;;3.00;0.60;;;23.10;61.10;;;;;;4976218;28;20022;-68
2022/08/18 06:29:36;;;;;;;1.52;0.57;;;22.70;62.60;;;;;;4977631;28;20434;-70
2022/08/18 06:32:14;;;;;;;2.75;0.82;;;22.40;63.70;;;;;;4978151;28;20256;-73
2022/08/18 06:35:12;;;;;;;3.65;0.68;;;22.10;64.90;;;;;;4984766;28;20033;-71
2022/08/18 06:40:49;;;;;;;3.88;1.00;;;21.60;68.30;;;;;;4977457;28;20097;-71
2022/08/18 06:43:18;;;;;;;2.85;0.90;;;21.40;69.50;;;;;;4976884;28;20172;-74
2022/08/18 06:45:51;;;;;;;3.80;1.00;;;21.20;70.50;;;;;;4976839;28;20037;-72
2022/08/18 06:48:39;;;;;;;2.80;1.08;;;21.00;71.60;;;;;;4975760;28;20086;-71
2022/08/18 06:51:08;;;;;;;4.18;0.93;;;20.80;72.20;;;;;;4976481;28;20753;-72
2022/08/18 06:53:53;;;;;;;2.08;0.77;;;20.70;73.40;;;;;;4974725;28;20502;-71
2022/08/18 06:56:36;;;;;;;2.88;1.30;;;20.50;74.10;;;;;;4976603;28;20030;-69
2022/08/18 06:59:24;;;;;;;2.15;0.98;;;20.20;74.60;;;;;;4979479;28;20042;-70
2022/08/18 07:02:14;;;;;;;2.50;0.77;;;20.00;76.00;;;;;;4972484;28;20480;-70
2022/08/18 07:04:58;;;;;;;2.78;1.08;;;19.80;76.90;;;;;;4978607;28;20037;-70
2022/08/18 07:07:38;;;;;;;4.30;0.98;;;19.70;77.40;;;;;;4973064;28;20110;-70
2022/08/18 07:10:25;;;;;;;5.25;3.58;;;19.60;78.50;;;;;;4984340;28;20088;-69
2022/08/18 07:13:04;;;;;;;5.03;2.15;;;19.50;79.50;;;;;;4995345;28;20530;-70
2022/08/18 07:15:32;;;;;;;6.65;2.22;;;19.40;80.40;;;;;;4968449;28;20026;-69
2022/08/18 07:18:08;;;;;;;6.45;3.15;;;19.20;81.10;;;;;;4974560;28;20026;-68
2022/08/18 07:20:45;;;;;;;10.15;3.60;;;19.20;81.90;;;;;;4977250;28;20058;-72
2022/08/18 07:23:38;;;;;;;7.45;2.97;;;19.10;82.80;;;;;;4971607;28;20034;-73
2022/08/18 07:26:15;;;;;;;8.70;4.03;;;19.00;83.50;;;;;;4974009;28;20029;-70
2022/08/18 07:28:46;;;;;;;8.68;3.30;;;18.80;84.30;;;;;;4976095;28;20104;-71
2022/08/18 07:31:33;;;;;;;7.53;2.80;;;18.80;84.90;;;;;;4973664;28;20062;-71
2022/08/18 07:34:11;;;;;;;7.15;2.75;;;18.70;85.60;;;;;;4965040;28;20482;-69
2022/08/18 07:37:01;;;;;;;7.28;2.67;;;18.70;86.30;;;;;;4974390;28;20026;-72
2022/08/18 07:39:38;;;;;;;8.02;2.83;;;18.60;87.10;;;;;;4969820;28;20027;-71
2022/08/18 07:42:33;;;;;;;7.93;2.95;;;18.60;88.20;;;;;;4974285;28;20077;-73
2022/08/18 07:45:14;;;;;;;6.85;3.05;;;18.60;88.70;;;;;;4974472;28;20387;-71
2022/08/18 07:48:09;;;;;;;10.02;2.80;;;18.50;89.60;;;;;;4978601;28;20018;-69
2022/08/18 07:50:54;;;;;;;6.82;3.15;;;18.40;90.10;;;;;;4961873;28;20099;-69
2022/08/18 07:53:43;;;;;;;10.70;3.45;;;18.40;90.50;;;;;;4973191;28;20035;-71
2022/08/18 07:56:30;;;;;;;8.32;3.42;;;18.40;90.80;;;;;;4974928;28;20384;-72
2022/08/18 07:59:20;;;;;;;8.95;3.03;;;18.30;91.30;;;;;;4977017;28;20103;-72
2022/08/18 08:02:05;;;;;;;8.93;3.33;;;18.20;91.70;;;;;;4990099;28;20113;-70
2022/08/18 08:04:58;;;;;;;10.55;4.45;;;18.20;92.10;;;;;;4973459;28;20026;-71
2022/08/18 08:07:50;;;;;;;11.40;4.20;;;18.20;92.20;;;;;;4975251;28;20030;-73
2022/08/18 08:10:42;;;;;;;9.55;5.47;;;18.10;92.50;;;;;;4983101;28;20371;-69
2022/08/18 08:13:41;;;;;;;10.95;5.00;;;18.00;92.80;;;;;;4974780;28;20070;-70
2022/08/18 08:16:43;;;;;;;12.20;6.28;;;18.00;92.90;;;;;;4971760;28;20056;-73
2022/08/18 08:19:32;;;;;;;15.50;8.27;;;18.00;93.20;;;;;;4972781;28;20042;-71
2022/08/18 08:22:21;;;;;;;17.08;9.50;;;17.90;93.20;;;;;;4975792;28;20038;-71
2022/08/18 08:25:05;;;;;;;14.02;7.78;;;17.90;93.50;;;;;;4976217;28;20034;-71
2022/08/18 08:28:01;;;;;;;12.95;6.63;;;17.80;93.70;;;;;;4975412;28;20027;-69
2022/08/18 08:30:33;;;;;;;16.98;6.93;;;17.90;93.90;;;;;;4975397;28;20030;-71
2022/08/18 08:33:26;;;;;;;11.32;6.70;;;17.80;94.10;;;;;;4973117;28;20034;-71
2022/08/18 08:36:07;;;;;;;15.38;6.82;;;17.70;94.40;;;;;;4973697;28;20041;-71
2022/08/18 08:38:43;;;;;;;12.80;6.65;;;17.80;94.60;;;;;;4974647;28;20101;-70
2022/08/18 08:41:54;;;;;;;11.10;6.32;;;17.70;94.80;;;;;;4971855;28;20027;-71
2022/08/18 08:44:39;;;;;;;8.38;5.20;;;17.70;95.10;;;;;;4971292;28;20033;-70
2022/08/18 08:47:50;;;;;;;12.85;5.35;;;17.60;95.40;;;;;;4974060;28;20030;-72
2022/08/18 08:50:30;;;;;;;11.45;6.70;;;17.60;95.60;;;;;;4989365;28;20399;-71
2022/08/18 08:53:10;;;;;;;16.77;7.10;;;17.60;95.90;;;;;;4973419;28;20733;-73
2022/08/18 08:55:45;;;;;;;20.17;12.48;;;17.60;96.30;;;;;;4974668;28;20023;-71
2022/08/18 08:58:31;;;;;;;16.75;11.93;;;17.60;96.20;;;;;;4973693;28;20051;-71
2022/08/18 09:00:59;;;;;;;22.30;15.93;;;17.50;96.30;;;;;;4974593;28;20038;-74
2022/08/18 09:03:41;;;;;;;25.20;18.23;;;17.50;96.40;;;;;;4975117;28;20590;-70
2022/08/18 09:06:23;;;;;;;28.43;20.00;;;17.50;96.60;;;;;;4974414;28;20030;-74
2022/08/18 09:08:56;;;;;;;22.60;17.37;;;17.50;96.70;;;;;;4956480;28;20646;-73
2022/08/18 09:11:42;;;;;;;25.63;16.20;;;17.40;96.90;;;;;;4964526;28;20486;-72
2022/08/18 09:14:39;;;;;;;19.73;13.35;;;17.40;97.10;;;;;;4969166;28;20116;-74
2022/08/18 09:17:39;;;;;;;20.83;11.15;;;17.40;97.40;;;;;;4971765;28;20503;-71
2022/08/18 09:20:28;;;;;;;14.05;9.88;;;17.30;97.60;;;;;;4991114;28;20030;-76
2022/08/18 09:23:09;;;;;;;12.77;7.10;;;17.30;97.60;;;;;;4977013;28;20022;-70
2022/08/18 09:25:42;;;;;;;12.17;7.80;;;17.20;98.00;;;;;;4976580;28;20026;-70
2022/08/18 09:28:11;;;;;;;13.68;6.38;;;17.20;97.90;;;;;;4977134;28;20365;-72
2022/08/18 09:30:46;;;;;;;8.23;4.47;;;17.10;98.00;;;;;;4977831;28;20058;-72
2022/08/18 09:33:45;;;;;;;16.15;4.60;;;17.10;98.00;;;;;;4975826;28;20039;-73
2022/08/18 09:36:15;;;;;;;11.38;5.25;;;17.00;98.10;;;;;;4977648;28;20487;-70
2022/08/18 09:42:46;;;;;;;13.07;5.35;;;16.90;98.30;;;;;;4966467;28;20223;-74
2022/08/18 09:45:31;;;;;;;7.80;4.47;;;16.90;98.40;;;;;;4977691;28;20025;-71
2022/08/18 09:48:00;;;;;;;8.98;5.22;;;16.90;98.50;;;;;;4972682;28;20538;-75
2022/08/18 09:50:27;;;;;;;9.63;5.20;;;16.80;98.50;;;;;;4978730;28;20041;-74
2022/08/18 09:53:14;;;;;;;15.82;5.88;;;16.80;98.70;;;;;;4976227;28;20855;-75
2022/08/18 09:55:53;;;;;;;20.38;10.38;;;16.80;98.80;;;;;;4978697;28;20076;-75
2022/08/18 09:58:49;;;;;;;12.15;7.85;;;16.80;98.90;;;;;;4974171;28;20049;-74
2022/08/18 10:01:31;;;;;;;14.65;9.30;;;16.80;99.00;;;;;;4977249;28;20018;-71
2022/08/18 10:04:19;;;;;;;14.23;7.68;;;16.80;99.20;;;;;;4979157;28;20033;-69
2022/08/18 10:06:48;;;;;;;11.25;6.55;;;16.70;99.30;;;;;;4976613;28;20022;-73
2022/08/18 10:09:35;;;;;;;11.30;7.28;;;16.70;99.10;;;;;;4978225;28;20415;-71
2022/08/18 10:12:24;;;;;;;10.00;5.75;;;16.70;99.20;;;;;;4978648;28;20513;-71
2022/08/18 10:15:09;;;;;;;11.20;4.80;;;16.60;98.80;;;;;;4977742;28;20128;-73
2022/08/18 10:18:00;;;;;;;9.90;4.97;;;16.70;98.70;;;;;;4968628;28;20041;-70
2022/08/18 10:20:42;;;;;;;7.63;3.35;;;16.70;98.50;;;;;;4977048;28;20025;-72
2022/08/18 10:23:10;;;;;;;7.20;3.10;;;16.70;97.80;;;;;;4978585;28;20525;-72
2022/08/18 10:25:41;;;;;;;8.32;3.90;;;16.60;97.50;;;;;;4979143;28;20030;-72
2022/08/18 10:28:47;;;;;;;5.03;2.85;;;16.60;97.50;;;;;;4978133;28;20072;-72
2022/08/18 10:31:14;;;;;;;7.18;3.67;;;16.60;97.30;;;;;;4970759;28;20479;-71
2022/08/18 10:34:00;;;;;;;5.07;3.33;;;16.70;97.00;;;;;;4977034;28;20045;-74
2022/08/18 10:36:38;;;;;;;5.90;3.50;;;16.70;96.90;;;;;;4976132;28;20027;-70
2022/08/18 10:39:13;;;;;;;4.63;2.45;;;16.70;96.70;;;;;;4977447;28;20057;-73
2022/08/18 10:41:57;;;;;;;5.38;2.50;;;16.70;96.20;;;;;;4976761;28;20076;-70
2022/08/18 10:44:26;;;;;;;6.43;3.05;;;16.70;96.10;;;;;;4977745;28;20030;-69
2022/08/18 10:46:57;;;;;;;4.47;2.38;;;16.80;96.20;;;;;;4977147;28;20032;-68
2022/08/18 10:49:27;;;;;;;6.15;3.17;;;16.80;96.30;;;;;;4976565;28;20036;-68
2022/08/18 10:52:03;;;;;;;4.00;2.45;;;16.80;96.10;;;;;;4977472;28;20034;-69
